createdAt,value
2022-07-28T00:00:15.103Z,969.42
2022-07-28T00:00:46.798Z,969.42
2022-07-28T00:01:19.959Z,969.52
2022-07-28T00:01:53.626Z,969.52
2022-07-28T00:02:22.136Z,969.32
2022-07-28T00:02:54.627Z,969.32
2022-07-28T00:03:27.008Z,969.42
2022-07-28T00:03:58.401Z,969.42
2022-07-28T00:04:30.020Z,969.42
2022-07-28T00:05:02.395Z,969.32
2022-07-28T00:05:34.497Z,969.32
2022-07-28T00:06:06.260Z,969.32
2022-07-28T00:06:38.448Z,969.32
2022-07-28T00:07:10.138Z,969.32
2022-07-28T00:07:42.606Z,969.32
2022-07-28T00:08:14.204Z,969.22
2022-07-28T00:08:45.713Z,969.22
2022-07-28T00:09:18.150Z,969.32
2022-07-28T00:09:49.698Z,969.32
2022-07-28T00:10:22.306Z,969.11
2022-07-28T00:10:53.562Z,969.11
2022-07-28T00:11:26.030Z,969.32
2022-07-28T00:11:57.392Z,969.32
2022-07-28T00:12:30.317Z,969.11
2022-07-28T00:13:02.322Z,969.22
2022-07-28T00:13:34.585Z,969.22
2022-07-28T00:14:06.184Z,969.32
2022-07-28T00:14:37.987Z,969.32
2022-07-28T00:15:10.103Z,969.22
2022-07-28T00:15:42.801Z,969.22
2022-07-28T00:16:13.334Z,969.11
2022-07-28T00:16:46.954Z,969.11
2022-07-28T00:17:17.303Z,969.32
2022-07-28T00:17:49.619Z,969.32
2022-07-28T00:18:23.301Z,969.32
2022-07-28T00:18:53.913Z,969.32
2022-07-28T00:19:25.275Z,969.22
2022-07-28T00:19:57.614Z,969.22
2022-07-28T00:20:29.204Z,969.32
2022-07-28T00:21:02.788Z,969.22
2022-07-28T00:21:32.980Z,969.22
2022-07-28T00:22:05.508Z,969.11
2022-07-28T00:22:37.036Z,969.11
2022-07-28T00:23:09.566Z,969.32
2022-07-28T00:23:40.808Z,969.32
2022-07-28T00:24:13.871Z,969.22
2022-07-28T00:24:44.950Z,969.22
2022-07-28T00:25:17.874Z,969.22
2022-07-28T00:25:48.785Z,969.22
2022-07-28T00:26:21.326Z,969.01
2022-07-28T00:26:52.931Z,969.01
2022-07-28T00:27:25.386Z,969.32
2022-07-28T00:27:57.714Z,969.32
2022-07-28T00:28:29.248Z,969.32
2022-07-28T00:29:00.846Z,969.11
2022-07-28T00:29:49.168Z,969.11
2022-07-28T00:30:05.391Z,969.32
2022-07-28T00:30:37.258Z,969.32
2022-07-28T00:31:10.630Z,969.22
2022-07-28T00:31:41.249Z,969.22
2022-07-28T00:32:13.690Z,969.11
2022-07-28T00:32:45.932Z,969.11
2022-07-28T00:33:20.340Z,969.22
2022-07-28T00:33:49.103Z,969.22
2022-07-28T00:34:20.638Z,969.11
2022-07-28T00:34:53.765Z,969.11
2022-07-28T00:35:30.485Z,969.32
2022-07-28T00:35:57.028Z,969.32
2022-07-28T00:36:28.388Z,969.22
2022-07-28T00:37:00.893Z,969.11
2022-07-28T00:37:32.468Z,969.11
2022-07-28T00:38:04.816Z,969.32
2022-07-28T00:38:36.361Z,969.32
2022-07-28T00:39:08.867Z,969.42
2022-07-28T00:39:41.524Z,969.42
2022-07-28T00:40:12.883Z,969.11
2022-07-28T00:40:44.448Z,969.11
2022-07-28T00:41:16.929Z,969.22
2022-07-28T00:41:48.255Z,969.22
2022-07-28T00:42:20.650Z,969.22
2022-07-28T00:42:52.325Z,969.22
2022-07-28T00:43:24.818Z,969.11
2022-07-28T00:43:57.076Z,969.11
2022-07-28T00:44:28.943Z,969.22
2022-07-28T00:45:00.090Z,969.11
2022-07-28T00:45:32.878Z,969.11
2022-07-28T00:46:04.101Z,969.11
2022-07-28T00:46:37.470Z,969.11
2022-07-28T00:47:08.987Z,969.11
2022-07-28T00:47:40.394Z,969.11
2022-07-28T00:48:12.026Z,969.32
2022-07-28T00:48:44.599Z,969.32
2022-07-28T00:49:15.914Z,969.11
2022-07-28T00:49:48.792Z,969.11
2022-07-28T00:50:21.090Z,969.11
2022-07-28T00:50:52.407Z,969.11
2022-07-28T00:51:23.733Z,969.11
2022-07-28T00:51:56.231Z,969.11
2022-07-28T00:52:27.817Z,969.01
2022-07-28T00:53:00.582Z,969.01
2022-07-28T00:53:31.779Z,969.01
2022-07-28T00:54:09.722Z,969.22
2022-07-28T00:54:36.622Z,969.22
2022-07-28T00:55:08.272Z,969.22
2022-07-28T00:56:05.519Z,969.22
2022-07-28T00:56:12.301Z,969.01
2022-07-28T00:56:43.680Z,969.01
2022-07-28T00:57:16.159Z,969.01
2022-07-28T00:57:48.542Z,969.01
2022-07-28T00:58:21.075Z,969.11
2022-07-28T00:58:52.546Z,969.11
2022-07-28T00:59:24.388Z,969.11
2022-07-28T00:59:55.508Z,969.11
2022-07-28T01:00:29.204Z,969.22
2022-07-28T01:00:59.412Z,969.22
2022-07-28T01:01:33.115Z,969.01
2022-07-28T01:02:03.508Z,969.22
2022-07-28T01:02:36.102Z,969.22
2022-07-28T01:03:08.212Z,969.11
2022-07-28T01:03:40.816Z,969.11
2022-07-28T01:04:11.759Z,969.22
2022-07-28T01:04:43.802Z,969.22
2022-07-28T01:05:15.327Z,968.91
2022-07-28T01:05:48.689Z,968.91
2022-07-28T01:06:19.307Z,969.11
2022-07-28T01:06:51.578Z,969.11
2022-07-28T01:07:23.155Z,969.01
2022-07-28T01:07:55.655Z,969.01
2022-07-28T01:08:27.009Z,969.01
2022-07-28T01:09:00.167Z,969.01
2022-07-28T01:09:31.578Z,968.91
2022-07-28T01:10:03.982Z,969.22
2022-07-28T01:10:34.997Z,969.22
2022-07-28T01:11:07.601Z,969.32
2022-07-28T01:11:42.622Z,969.32
2022-07-28T01:12:11.419Z,969.01
2022-07-28T01:12:42.935Z,969.01
2022-07-28T01:13:15.538Z,969.01
2022-07-28T01:13:46.947Z,969.01
2022-07-28T01:14:19.963Z,969.01
2022-07-28T01:14:53.061Z,969.01
2022-07-28T01:15:23.895Z,969.11
2022-07-28T01:15:56.314Z,969.11
2022-07-28T01:16:27.462Z,969.01
2022-07-28T01:16:58.806Z,969.01
2022-07-28T01:17:31.291Z,969.22
2022-07-28T01:18:02.633Z,969.11
2022-07-28T01:18:37.160Z,969.11
2022-07-28T01:19:06.640Z,969.32
2022-07-28T01:19:39.725Z,969.32
2022-07-28T01:20:12.816Z,969.32
2022-07-28T01:20:43.139Z,969.32
2022-07-28T01:21:14.643Z,969.11
2022-07-28T01:21:47.361Z,969.11
2022-07-28T01:22:18.476Z,969.01
2022-07-28T01:22:51.028Z,969.01
2022-07-28T01:23:22.514Z,969.01
2022-07-28T01:23:54.863Z,969.01
2022-07-28T01:24:26.412Z,969.01
2022-07-28T01:24:59.025Z,969.01
2022-07-28T01:25:31.059Z,969.01
2022-07-28T01:26:02.812Z,969.11
2022-07-28T01:26:35.341Z,969.11
2022-07-28T01:27:06.922Z,968.91
2022-07-28T01:27:38.225Z,968.91
2022-07-28T01:28:10.757Z,968.81
2022-07-28T01:28:42.310Z,968.81
2022-07-28T01:29:14.791Z,969.01
2022-07-28T01:29:46.688Z,969.01
2022-07-28T01:30:21.390Z,968.91
2022-07-28T01:30:50.366Z,968.91
2022-07-28T01:31:22.608Z,969.01
2022-07-28T01:31:54.101Z,969.01
2022-07-28T01:32:26.717Z,969.01
2022-07-28T01:32:58.163Z,969.01
2022-07-28T01:33:30.612Z,969.11
2022-07-28T01:34:01.996Z,969.11
2022-07-28T01:34:36.606Z,969.11
2022-07-28T01:35:06.087Z,969.01
2022-07-28T01:35:38.727Z,969.01
2022-07-28T01:36:10.966Z,969.01
2022-07-28T01:36:42.584Z,969.01
2022-07-28T01:37:13.847Z,969.01
2022-07-28T01:37:46.630Z,969.01
2022-07-28T01:38:17.867Z,969.01
2022-07-28T01:38:50.227Z,969.01
2022-07-28T01:39:21.766Z,969.11
2022-07-28T01:39:55.259Z,969.11
2022-07-28T01:40:26.906Z,969.11
2022-07-28T01:40:59.231Z,969.11
2022-07-28T01:41:31.668Z,969.01
2022-07-28T01:42:02.959Z,969.01
2022-07-28T01:42:34.145Z,969.01
2022-07-28T01:43:07.204Z,969.22
2022-07-28T01:43:37.622Z,969.22
2022-07-28T01:44:10.506Z,968.91
2022-07-28T01:44:41.538Z,968.91
2022-07-28T01:45:14.491Z,969.01
2022-07-28T01:45:45.592Z,969.01
2022-07-28T01:46:19.263Z,969.11
2022-07-28T01:46:49.539Z,969.11
2022-07-28T01:47:22.055Z,968.81
2022-07-28T01:47:53.523Z,968.81
2022-07-28T01:48:25.819Z,969.01
2022-07-28T01:48:57.431Z,969.01
2022-07-28T01:49:29.932Z,969.01
2022-07-28T01:50:01.847Z,969.01
2022-07-28T01:50:33.973Z,969.01
2022-07-28T01:51:05.387Z,969.01
2022-07-28T01:51:37.862Z,969.01
2022-07-28T01:52:10.545Z,968.91
2022-07-28T01:52:41.984Z,968.91
2022-07-28T01:53:13.273Z,968.91
2022-07-28T01:53:45.827Z,968.91
2022-07-28T01:54:17.407Z,969.01
2022-07-28T01:54:50.154Z,969.01
2022-07-28T01:55:21.362Z,969.01
2022-07-28T01:55:54.572Z,969.01
2022-07-28T01:56:27.211Z,968.91
2022-07-28T01:56:57.905Z,968.91
2022-07-28T01:57:29.202Z,968.71
2022-07-28T01:58:01.830Z,968.81
2022-07-28T01:58:33.074Z,968.81
2022-07-28T01:59:05.569Z,968.91
2022-07-28T01:59:38.012Z,968.91
2022-07-28T02:00:11.214Z,969.01
2022-07-28T02:00:40.955Z,969.01
2022-07-28T02:01:13.526Z,968.91
2022-07-28T02:01:44.907Z,968.91
2022-07-28T02:02:17.599Z,969.11
2022-07-28T02:02:48.837Z,969.11
2022-07-28T02:03:21.400Z,968.81
2022-07-28T02:03:53.647Z,968.81
2022-07-28T02:04:27.121Z,968.91
2022-07-28T02:04:56.846Z,968.91
2022-07-28T02:05:30.346Z,968.91
2022-07-28T02:06:00.680Z,969.11
2022-07-28T02:06:33.458Z,969.11
2022-07-28T02:07:04.761Z,968.81
2022-07-28T02:07:37.313Z,968.81
2022-07-28T02:08:08.679Z,969.01
2022-07-28T02:08:41.192Z,969.01
2022-07-28T02:09:12.510Z,968.91
2022-07-28T02:09:45.020Z,968.91
2022-07-28T02:10:16.687Z,968.81
2022-07-28T02:10:49.034Z,968.81
2022-07-28T02:11:20.452Z,968.81
2022-07-28T02:11:53.010Z,968.81
2022-07-28T02:12:25.541Z,968.61
2022-07-28T02:12:57.077Z,968.61
2022-07-28T02:13:29.400Z,968.91
2022-07-28T02:14:00.917Z,968.81
2022-07-28T02:14:32.388Z,968.81
2022-07-28T02:15:05.787Z,968.81
2022-07-28T02:15:36.413Z,968.81
2022-07-28T02:16:08.970Z,968.91
2022-07-28T02:16:40.184Z,968.91
2022-07-28T02:17:17.124Z,968.91
2022-07-28T02:17:44.206Z,968.91
2022-07-28T02:18:16.779Z,968.81
2022-07-28T02:18:48.129Z,968.81
2022-07-28T02:19:21.558Z,968.81
2022-07-28T02:19:52.131Z,968.81
2022-07-28T02:20:24.978Z,968.91
2022-07-28T02:20:56.027Z,968.91
2022-07-28T02:21:28.686Z,968.61
2022-07-28T02:22:00.129Z,968.81
2022-07-28T02:22:33.583Z,968.81
2022-07-28T02:23:03.979Z,968.61
2022-07-28T02:23:36.536Z,968.61
2022-07-28T02:24:08.101Z,968.81
2022-07-28T02:24:40.477Z,968.81
2022-07-28T02:25:12.789Z,968.54
2022-07-28T02:25:46.466Z,968.54
2022-07-28T02:26:15.767Z,968.91
2022-07-28T02:26:48.431Z,968.91
2022-07-28T02:27:20.985Z,968.81
2022-07-28T02:27:52.373Z,968.81
2022-07-28T02:28:24.655Z,968.71
2022-07-28T02:28:56.450Z,968.71
2022-07-28T02:29:49.871Z,968.71
2022-07-28T02:30:01.895Z,968.71
2022-07-28T02:30:31.641Z,968.61
2022-07-28T02:31:04.311Z,968.71
2022-07-28T02:31:35.947Z,968.71
2022-07-28T02:32:24.129Z,968.71
2022-07-28T02:32:40.883Z,968.71
2022-07-28T02:33:12.231Z,968.61
2022-07-28T02:33:59.971Z,968.61
2022-07-28T02:34:17.101Z,968.81
2022-07-28T02:34:47.616Z,968.81
2022-07-28T02:35:20.444Z,968.71
2022-07-28T02:35:51.420Z,968.71
2022-07-28T02:36:24.914Z,968.81
2022-07-28T02:36:55.470Z,968.81
2022-07-28T02:37:29.029Z,968.61
2022-07-28T02:38:00.648Z,968.61
2022-07-28T02:38:32.710Z,968.81
2022-07-28T02:39:04.367Z,968.71
2022-07-28T02:39:37.828Z,968.71
2022-07-28T02:40:07.458Z,968.71
2022-07-28T02:40:40.887Z,968.71
2022-07-28T02:41:11.388Z,968.54
2022-07-28T02:41:43.926Z,968.54
2022-07-28T02:42:16.334Z,968.44
2022-07-28T02:42:48.039Z,968.44
2022-07-28T02:43:19.082Z,968.71
2022-07-28T02:43:51.703Z,968.71
2022-07-28T02:44:23.133Z,968.54
2022-07-28T02:44:55.668Z,968.54
2022-07-28T02:45:28.813Z,968.61
2022-07-28T02:45:59.587Z,968.61
2022-07-28T02:46:31.122Z,968.61
2022-07-28T02:47:03.677Z,968.71
2022-07-28T02:47:34.975Z,968.71
2022-07-28T02:48:07.473Z,968.71
2022-07-28T02:48:39.067Z,968.71
2022-07-28T02:49:11.471Z,968.81
2022-07-28T02:49:42.822Z,968.81
2022-07-28T02:50:15.571Z,968.34
2022-07-28T02:50:48.088Z,968.34
2022-07-28T02:51:20.766Z,968.54
2022-07-28T02:51:50.772Z,968.54
2022-07-28T02:52:23.541Z,968.54
2022-07-28T02:52:54.848Z,968.54
2022-07-28T02:53:27.165Z,968.61
2022-07-28T02:53:58.710Z,968.61
2022-07-28T02:54:31.318Z,968.54
2022-07-28T02:55:03.684Z,968.61
2022-07-28T02:55:36.138Z,968.61
2022-07-28T02:56:06.676Z,968.61
2022-07-28T02:56:39.621Z,968.61
2022-07-28T02:57:10.558Z,968.54
2022-07-28T02:57:43.219Z,968.54
2022-07-28T02:58:14.738Z,968.61
2022-07-28T02:58:47.388Z,968.61
2022-07-28T02:59:19.357Z,968.54
2022-07-28T02:59:50.985Z,968.54
2022-07-28T03:00:23.836Z,968.61
2022-07-28T03:00:54.978Z,968.61
2022-07-28T03:01:26.467Z,968.44
2022-07-28T03:01:59.074Z,968.44
2022-07-28T03:02:30.284Z,968.81
2022-07-28T03:03:02.802Z,968.54
2022-07-28T03:03:34.553Z,968.54
2022-07-28T03:04:09.951Z,968.61
2022-07-28T03:04:38.274Z,968.61
2022-07-28T03:05:11.823Z,968.71
2022-07-28T03:05:42.374Z,968.71
2022-07-28T03:06:15.332Z,968.54
2022-07-28T03:06:46.382Z,968.54
2022-07-28T03:07:18.762Z,968.61
2022-07-28T03:07:50.660Z,968.61
2022-07-28T03:08:22.714Z,968.81
2022-07-28T03:08:54.111Z,968.81
2022-07-28T03:09:26.979Z,968.71
2022-07-28T03:09:58.180Z,968.71
2022-07-28T03:10:33.722Z,968.61
2022-07-28T03:11:02.020Z,968.71
2022-07-28T03:11:34.974Z,968.71
2022-07-28T03:12:06.833Z,968.44
2022-07-28T03:12:39.526Z,968.44
2022-07-28T03:13:09.968Z,968.71
2022-07-28T03:13:42.643Z,968.71
2022-07-28T03:14:14.475Z,968.54
2022-07-28T03:14:46.478Z,968.54
2022-07-28T03:15:18.198Z,968.61
2022-07-28T03:15:50.252Z,968.61
2022-07-28T03:16:21.861Z,968.61
2022-07-28T03:16:55.760Z,968.61
2022-07-28T03:17:26.801Z,968.71
2022-07-28T03:17:58.218Z,968.61
2022-07-28T03:18:29.769Z,968.71
2022-07-28T03:19:02.308Z,968.71
2022-07-28T03:19:34.033Z,968.71
2022-07-28T03:20:06.291Z,968.61
2022-07-28T03:20:37.684Z,968.61
2022-07-28T03:21:11.276Z,968.81
2022-07-28T03:21:41.536Z,968.81
2022-07-28T03:22:14.118Z,968.71
2022-07-28T03:22:46.744Z,968.71
2022-07-28T03:23:18.131Z,968.81
2022-07-28T03:23:49.623Z,968.81
2022-07-28T03:24:22.061Z,968.81
2022-07-28T03:24:54.754Z,968.81
2022-07-28T03:25:27.507Z,968.81
2022-07-28T03:25:57.416Z,968.81
2022-07-28T03:26:30.694Z,968.71
2022-07-28T03:27:01.605Z,968.71
2022-07-28T03:27:35.457Z,968.71
2022-07-28T03:28:06.285Z,968.81
2022-07-28T03:28:37.991Z,968.81
2022-07-28T03:29:09.256Z,968.91
2022-07-28T03:29:42.008Z,968.91
2022-07-28T03:30:13.852Z,968.91
2022-07-28T03:30:46.035Z,968.91
2022-07-28T03:31:17.271Z,968.81
2022-07-28T03:31:49.700Z,968.81
2022-07-28T03:32:21.378Z,968.91
2022-07-28T03:32:53.801Z,968.91
2022-07-28T03:33:25.322Z,968.91
2022-07-28T03:33:57.613Z,968.91
2022-07-28T03:34:29.187Z,968.81
2022-07-28T03:35:01.765Z,968.91
2022-07-28T03:35:33.119Z,968.91
2022-07-28T03:36:05.634Z,968.81
2022-07-28T03:36:36.895Z,968.81
2022-07-28T03:37:09.458Z,968.81
2022-07-28T03:37:41.027Z,968.81
2022-07-28T03:38:14.577Z,968.91
2022-07-28T03:38:45.456Z,968.91
2022-07-28T03:39:17.626Z,968.61
2022-07-28T03:39:48.910Z,968.61
2022-07-28T03:40:27.348Z,968.61
2022-07-28T03:40:31.999Z,969.01
2022-07-28T03:40:52.981Z,969.01
2022-07-28T03:41:25.516Z,968.91
2022-07-28T03:41:56.873Z,968.91
2022-07-28T03:42:29.230Z,968.91
2022-07-28T03:43:00.788Z,968.91
2022-07-28T03:43:33.333Z,968.91
2022-07-28T03:44:04.827Z,968.91
2022-07-28T03:44:37.169Z,968.91
2022-07-28T03:45:11.179Z,969.01
2022-07-28T03:45:42.543Z,968.91
2022-07-28T03:46:13.506Z,968.81
2022-07-28T03:46:45.442Z,968.81
2022-07-28T03:47:16.657Z,968.91
2022-07-28T03:47:49.168Z,968.91
2022-07-28T03:48:20.521Z,968.81
2022-07-28T03:48:53.133Z,968.81
2022-07-28T03:49:24.572Z,968.81
2022-07-28T03:49:57.080Z,968.81
2022-07-28T03:50:29.691Z,968.71
2022-07-28T03:51:00.943Z,968.61
2022-07-28T03:51:32.477Z,968.61
2022-07-28T03:52:04.825Z,968.81
2022-07-28T03:52:36.776Z,968.81
2022-07-28T03:53:08.975Z,968.71
2022-07-28T03:53:40.353Z,968.71
2022-07-28T03:54:13.090Z,968.71
2022-07-28T03:54:44.327Z,968.71
2022-07-28T03:55:18.619Z,968.71
2022-07-28T03:55:48.174Z,968.71
2022-07-28T03:56:20.935Z,968.91
2022-07-28T03:56:52.250Z,968.91
2022-07-28T03:57:25.810Z,968.71
2022-07-28T03:57:57.100Z,968.71
2022-07-28T03:58:29.210Z,968.61
2022-07-28T03:59:01.158Z,968.61
2022-07-28T03:59:32.694Z,968.81
2022-07-28T04:00:09.530Z,969.01
2022-07-28T04:00:36.751Z,969.01
2022-07-28T04:01:08.648Z,968.91
2022-07-28T04:01:40.654Z,968.91
2022-07-28T04:02:12.088Z,968.81
2022-07-28T04:02:44.541Z,968.81
2022-07-28T04:03:36.366Z,968.81
2022-07-28T04:03:49.348Z,968.81
2022-07-28T04:04:19.844Z,968.81
2022-07-28T04:04:52.786Z,968.81
2022-07-28T04:05:24.929Z,968.71
2022-07-28T04:05:56.408Z,968.71
2022-07-28T04:06:28.834Z,968.71
2022-07-28T04:07:00.305Z,968.71
2022-07-28T04:07:32.668Z,968.71
2022-07-28T04:08:04.269Z,968.71
2022-07-28T04:08:35.737Z,968.71
2022-07-28T04:09:09.181Z,969.01
2022-07-28T04:09:40.488Z,969.01
2022-07-28T04:10:12.418Z,968.81
2022-07-28T04:10:44.746Z,968.81
2022-07-28T04:11:16.561Z,968.81
2022-07-28T04:11:47.639Z,968.81
2022-07-28T04:12:20.221Z,968.71
2022-07-28T04:12:52.619Z,968.71
2022-07-28T04:13:24.081Z,968.91
2022-07-28T04:13:56.398Z,968.91
2022-07-28T04:14:29.049Z,968.91
2022-07-28T04:15:00.724Z,968.91
2022-07-28T04:15:31.889Z,968.81
2022-07-28T04:16:04.558Z,968.71
2022-07-28T04:16:36.237Z,968.71
2022-07-28T04:17:07.361Z,968.81
2022-07-28T04:17:39.956Z,968.81
2022-07-28T04:18:11.517Z,968.81
2022-07-28T04:18:43.875Z,968.81
2022-07-28T04:19:15.239Z,968.81
2022-07-28T04:19:48.031Z,968.81
2022-07-28T04:20:19.570Z,968.81
2022-07-28T04:20:51.646Z,968.81
2022-07-28T04:21:23.168Z,968.81
2022-07-28T04:21:55.993Z,968.81
2022-07-28T04:22:28.045Z,968.81
2022-07-28T04:23:00.561Z,968.81
2022-07-28T04:23:31.112Z,968.61
2022-07-28T04:24:03.902Z,968.81
2022-07-28T04:24:34.944Z,968.81
2022-07-28T04:25:10.388Z,968.81
2022-07-28T04:25:39.126Z,968.81
2022-07-28T04:26:11.756Z,968.71
2022-07-28T04:26:44.092Z,968.71
2022-07-28T04:27:16.398Z,968.91
2022-07-28T04:27:46.935Z,968.91
2022-07-28T04:28:19.631Z,969.01
2022-07-28T04:28:54.928Z,969.01
2022-07-28T04:29:27.254Z,968.81
2022-07-28T04:29:55.881Z,968.81
2022-07-28T04:30:27.531Z,968.61
2022-07-28T04:30:58.830Z,968.61
2022-07-28T04:31:34.424Z,968.71
2022-07-28T04:32:02.892Z,968.91
2022-07-28T04:32:37.415Z,968.91
2022-07-28T04:33:06.672Z,968.61
2022-07-28T04:33:39.133Z,968.61
2022-07-28T04:34:10.858Z,968.71
2022-07-28T04:34:43.320Z,968.71
2022-07-28T04:35:17.507Z,968.81
2022-07-28T04:35:48.010Z,968.81
2022-07-28T04:36:18.699Z,968.54
2022-07-28T04:36:51.164Z,968.54
2022-07-28T04:37:22.624Z,968.81
2022-07-28T04:37:56.193Z,968.81
2022-07-28T04:38:26.461Z,968.81
2022-07-28T04:39:00.107Z,968.81
2022-07-28T04:39:30.450Z,968.61
2022-07-28T04:40:03.221Z,968.71
2022-07-28T04:40:34.471Z,968.71
2022-07-28T04:41:08.059Z,968.81
2022-07-28T04:41:38.302Z,968.81
2022-07-28T04:42:10.871Z,968.81
2022-07-28T04:42:42.691Z,968.81
2022-07-28T04:43:15.794Z,968.91
2022-07-28T04:43:47.265Z,968.91
2022-07-28T04:44:18.731Z,968.81
2022-07-28T04:44:50.239Z,968.81
2022-07-28T04:45:23.108Z,968.81
2022-07-28T04:45:54.648Z,968.81
2022-07-28T04:46:26.688Z,968.81
2022-07-28T04:46:58.417Z,968.81
2022-07-28T04:47:30.585Z,968.81
2022-07-28T04:48:02.045Z,968.81
2022-07-28T04:48:36.810Z,968.81
2022-07-28T04:49:06.218Z,968.71
2022-07-28T04:49:40.617Z,968.71
2022-07-28T04:50:10.432Z,968.61
2022-07-28T04:50:42.649Z,968.61
2022-07-28T04:51:13.912Z,968.81
2022-07-28T04:51:47.423Z,968.81
2022-07-28T04:52:19.053Z,968.71
2022-07-28T04:52:50.837Z,968.71
2022-07-28T04:53:22.902Z,968.81
2022-07-28T04:53:55.220Z,968.81
2022-07-28T04:54:26.784Z,968.71
2022-07-28T04:54:59.378Z,968.71
2022-07-28T04:55:29.857Z,968.81
2022-07-28T04:56:02.430Z,968.71
2022-07-28T04:56:33.772Z,968.71
2022-07-28T04:57:10.430Z,968.61
2022-07-28T04:57:37.671Z,968.61
2022-07-28T04:58:10.209Z,969.01
2022-07-28T04:58:41.596Z,969.01
2022-07-28T04:59:14.046Z,968.81
2022-07-28T04:59:46.031Z,968.81
2022-07-28T05:00:21.373Z,968.71
2022-07-28T05:00:50.667Z,968.71
2022-07-28T05:01:22.085Z,968.91
2022-07-28T05:01:54.446Z,968.91
2022-07-28T05:02:26.942Z,968.81
2022-07-28T05:02:57.381Z,968.81
2022-07-28T05:03:36.126Z,968.91
2022-07-28T05:04:01.538Z,968.81
2022-07-28T05:04:36.234Z,968.81
2022-07-28T05:05:05.657Z,968.81
2022-07-28T05:05:37.900Z,968.81
2022-07-28T05:06:09.387Z,968.71
2022-07-28T05:06:41.759Z,968.71
2022-07-28T05:07:13.252Z,969.01
2022-07-28T05:07:46.519Z,969.01
2022-07-28T05:08:17.356Z,968.71
2022-07-28T05:08:49.714Z,968.71
2022-07-28T05:09:21.230Z,968.71
2022-07-28T05:09:54.736Z,968.71
2022-07-28T05:10:25.421Z,968.81
2022-07-28T05:10:58.098Z,968.81
2022-07-28T05:11:29.138Z,968.81
2022-07-28T05:12:02.165Z,968.71
2022-07-28T05:12:32.958Z,968.71
2022-07-28T05:13:05.618Z,968.91
2022-07-28T05:13:37.080Z,968.91
2022-07-28T05:14:12.598Z,968.91
2022-07-28T05:14:42.089Z,968.91
2022-07-28T05:15:13.890Z,968.81
2022-07-28T05:15:45.000Z,968.81
2022-07-28T05:16:17.405Z,968.71
2022-07-28T05:16:48.941Z,968.71
2022-07-28T05:17:21.401Z,968.71
2022-07-28T05:17:52.744Z,968.71
2022-07-28T05:18:25.453Z,968.81
2022-07-28T05:18:56.803Z,968.81
2022-07-28T05:19:29.443Z,968.91
2022-07-28T05:20:00.973Z,968.71
2022-07-28T05:20:34.357Z,968.71
2022-07-28T05:21:04.744Z,968.61
2022-07-28T05:21:37.237Z,968.61
2022-07-28T05:22:09.626Z,968.81
2022-07-28T05:22:41.435Z,968.81
2022-07-28T05:23:12.736Z,968.71
2022-07-28T05:23:47.646Z,968.71
2022-07-28T05:24:22.251Z,968.91
2022-07-28T05:24:50.042Z,968.91
2022-07-28T05:25:20.875Z,968.91
2022-07-28T05:25:52.887Z,968.91
2022-07-28T05:26:24.453Z,968.91
2022-07-28T05:26:57.883Z,968.91
2022-07-28T05:27:28.532Z,968.91
2022-07-28T05:28:01.859Z,968.91
2022-07-28T05:28:32.501Z,968.91
2022-07-28T05:29:05.017Z,968.91
2022-07-28T05:29:46.782Z,968.91
2022-07-28T05:30:10.317Z,968.81
2022-07-28T05:30:41.345Z,968.81
2022-07-28T05:31:13.012Z,968.91
2022-07-28T05:31:44.351Z,968.91
2022-07-28T05:32:17.896Z,968.81
2022-07-28T05:32:48.337Z,968.81
2022-07-28T05:33:20.571Z,968.81
2022-07-28T05:33:52.266Z,968.81
2022-07-28T05:34:24.746Z,968.91
2022-07-28T05:34:56.205Z,968.91
2022-07-28T05:35:28.701Z,968.71
2022-07-28T05:36:00.100Z,968.71
2022-07-28T05:36:32.658Z,968.91
2022-07-28T05:37:06.083Z,968.81
2022-07-28T05:37:36.590Z,968.81
2022-07-28T05:38:11.028Z,969.01
2022-07-28T05:38:41.043Z,969.01
2022-07-28T05:39:11.943Z,968.91
2022-07-28T05:39:44.428Z,968.91
2022-07-28T05:40:16.190Z,968.91
2022-07-28T05:40:48.383Z,968.91
2022-07-28T05:41:19.908Z,969.01
2022-07-28T05:41:52.447Z,969.01
2022-07-28T05:42:23.826Z,968.91
2022-07-28T05:42:56.213Z,968.91
2022-07-28T05:43:27.743Z,968.91
2022-07-28T05:44:00.412Z,968.91
2022-07-28T05:44:37.854Z,969.01
2022-07-28T05:45:05.177Z,968.81
2022-07-28T05:45:36.012Z,968.81
2022-07-28T05:46:08.356Z,969.01
2022-07-28T05:46:39.571Z,969.01
2022-07-28T05:47:12.127Z,968.71
2022-07-28T05:47:43.603Z,968.71
2022-07-28T05:48:16.272Z,968.91
2022-07-28T05:48:47.583Z,968.91
2022-07-28T05:49:20.124Z,968.91
2022-07-28T05:49:51.567Z,968.91
2022-07-28T05:50:24.029Z,968.91
2022-07-28T05:50:56.519Z,968.91
2022-07-28T05:51:28.050Z,968.71
2022-07-28T05:51:59.526Z,968.71
2022-07-28T05:52:32.304Z,968.91
2022-07-28T05:53:04.374Z,969.01
2022-07-28T05:53:37.833Z,969.01
2022-07-28T05:54:07.489Z,968.81
2022-07-28T05:54:40.085Z,968.81
2022-07-28T05:55:11.547Z,969.11
2022-07-28T05:56:00.399Z,969.11
2022-07-28T05:56:15.287Z,968.81
2022-07-28T05:56:50.275Z,968.81
2022-07-28T05:57:19.477Z,968.91
2022-07-28T05:57:51.727Z,968.91
2022-07-28T05:58:23.184Z,968.81
2022-07-28T05:58:56.903Z,968.81
2022-07-28T05:59:27.176Z,968.91
2022-07-28T06:00:01.638Z,968.91
2022-07-28T06:00:31.177Z,968.81
2022-07-28T06:01:03.805Z,968.91
2022-07-28T06:01:36.289Z,968.91
2022-07-28T06:02:07.802Z,969.01
2022-07-28T06:02:39.249Z,969.01
2022-07-28T06:03:12.075Z,968.91
2022-07-28T06:03:43.229Z,968.91
2022-07-28T06:04:28.013Z,969.01
2022-07-28T06:04:46.887Z,969.01
2022-07-28T06:05:20.027Z,969.11
2022-07-28T06:06:14.391Z,969.11
2022-07-28T06:06:24.393Z,968.81
2022-07-28T06:06:55.020Z,968.81
2022-07-28T06:07:43.149Z,968.91
2022-07-28T06:07:58.844Z,968.91
2022-07-28T06:08:31.256Z,968.91
2022-07-28T06:09:02.698Z,968.81
2022-07-28T06:09:39.741Z,968.81
2022-07-28T06:10:06.705Z,968.81
2022-07-28T06:10:39.247Z,968.81
2022-07-28T06:11:17.848Z,968.81
2022-07-28T06:11:43.144Z,968.81
2022-07-28T06:12:14.703Z,968.91
2022-07-28T06:12:47.175Z,968.91
2022-07-28T06:13:19.645Z,968.81
2022-07-28T06:13:51.687Z,968.81
2022-07-28T06:14:22.561Z,968.81
2022-07-28T06:14:55.198Z,968.81
2022-07-28T06:15:26.928Z,969.11
2022-07-28T06:15:59.077Z,969.11
2022-07-28T06:16:30.508Z,969.01
2022-07-28T06:17:03.018Z,969.01
2022-07-28T06:17:34.467Z,969.01
2022-07-28T06:18:06.845Z,968.91
2022-07-28T06:18:38.555Z,968.91
2022-07-28T06:19:10.735Z,969.01
2022-07-28T06:19:42.383Z,969.01
2022-07-28T06:20:15.347Z,968.81
2022-07-28T06:20:46.238Z,968.81
2022-07-28T06:21:18.756Z,969.11
2022-07-28T06:21:50.268Z,969.11
2022-07-28T06:22:22.935Z,968.91
2022-07-28T06:22:54.216Z,968.91
2022-07-28T06:23:26.691Z,968.91
2022-07-28T06:23:58.225Z,968.91
2022-07-28T06:24:30.700Z,968.91
2022-07-28T06:25:02.146Z,969.01
2022-07-28T06:25:34.956Z,969.01
2022-07-28T06:26:06.239Z,968.91
2022-07-28T06:26:43.864Z,968.91
2022-07-28T06:27:10.074Z,969.01
2022-07-28T06:27:42.683Z,969.01
2022-07-28T06:28:14.813Z,969.01
2022-07-28T06:28:46.511Z,969.01
2022-07-28T06:29:18.843Z,969.01
2022-07-28T06:29:50.514Z,969.01
2022-07-28T06:30:22.231Z,969.01
2022-07-28T06:30:54.531Z,969.01
2022-07-28T06:31:25.829Z,968.91
2022-07-28T06:31:58.638Z,968.91
2022-07-28T06:32:29.894Z,969.11
2022-07-28T06:33:04.294Z,969.11
2022-07-28T06:33:33.696Z,969.11
2022-07-28T06:34:06.416Z,969.01
2022-07-28T06:34:37.748Z,969.01
2022-07-28T06:35:10.625Z,969.11
2022-07-28T06:35:43.208Z,969.11
2022-07-28T06:36:15.027Z,969.11
2022-07-28T06:36:45.694Z,969.11
2022-07-28T06:37:19.045Z,969.01
2022-07-28T06:37:49.466Z,969.01
2022-07-28T06:38:22.199Z,969.11